sensor_id;sensor_type;location;lat;lon;timestamp;pressure;altitude;pressure_sealevel;temperature;humidity
62703;BME280;66022;50.448;18.122;2023-03-31T00:03:12;98432.31;;;9.07;90.77
62703;BME280;66022;50.448;18.122;2023-03-31T00:07:19;98431.33;;;9.07;95.49
62703;BME280;66022;50.448;18.122;2023-03-31T00:11:27;98430.58;;;9.08;90.41
62703;BME280;66022;50.448;18.122;2023-03-31T00:15:35;98431.01;;;9.06;90.42
62703;BME280;66022;50.448;18.122;2023-03-31T00:19:43;98430.94;;;9.00;92.32
62703;BME280;66022;50.448;18.122;2023-03-31T00:23:52;98431.14;;;8.93;89.96
62703;BME280;66022;50.448;18.122;2023-03-31T00:27:59;98431.36;;;8.82;91.77
62703;BME280;66022;50.448;18.122;2023-03-31T00:32:07;98432.12;;;8.72;90.40
62703;BME280;66022;50.448;18.122;2023-03-31T00:36:16;98431.27;;;8.61;92.64
62703;BME280;66022;50.448;18.122;2023-03-31T00:40:23;98431.18;;;8.52;91.44
62703;BME280;66022;50.448;18.122;2023-03-31T00:44:31;98428.69;;;8.43;91.21
62703;BME280;66022;50.448;18.122;2023-03-31T00:52:48;98424.91;;;8.25;91.87
62703;BME280;66022;50.448;18.122;2023-03-31T00:56:55;98422.99;;;8.16;97.82
62703;BME280;66022;50.448;18.122;2023-03-31T01:01:03;98419.45;;;8.10;92.47
62703;BME280;66022;50.448;18.122;2023-03-31T01:05:11;98416.50;;;8.05;91.92
62703;BME280;66022;50.448;18.122;2023-03-31T01:09:19;98412.58;;;7.98;92.50
62703;BME280;66022;50.448;18.122;2023-03-31T01:13:27;98409.01;;;7.93;91.19
62703;BME280;66022;50.448;18.122;2023-03-31T01:17:35;98406.76;;;7.87;94.36
62703;BME280;66022;50.448;18.122;2023-03-31T01:30:09;98402.53;;;7.71;92.55
62703;BME280;66022;50.448;18.122;2023-03-31T01:38:23;98404.08;;;7.62;93.61
62703;BME280;66022;50.448;18.122;2023-03-31T01:42:26;98405.47;;;7.61;92.07
62703;BME280;66022;50.448;18.122;2023-03-31T01:46:35;98405.61;;;7.58;96.61
62703;BME280;66022;50.448;18.122;2023-03-31T01:50:44;98404.99;;;7.60;92.26
62703;BME280;66022;50.448;18.122;2023-03-31T01:54:48;98404.49;;;7.63;91.65
62703;BME280;66022;50.448;18.122;2023-03-31T01:58:57;98404.94;;;7.65;92.16
62703;BME280;66022;50.448;18.122;2023-03-31T02:03:13;98403.91;;;7.70;90.90
62703;BME280;66022;50.448;18.122;2023-03-31T02:07:13;98401.98;;;7.74;95.00
62703;BME280;66022;50.448;18.122;2023-03-31T02:11:19;98401.92;;;7.79;90.69
62703;BME280;66022;50.448;18.122;2023-03-31T02:15:29;98401.58;;;7.82;90.41
62703;BME280;66022;50.448;18.122;2023-03-31T02:19:37;98401.88;;;7.84;91.11
62703;BME280;66022;50.448;18.122;2023-03-31T02:23:43;98403.61;;;7.85;90.89
62703;BME280;66022;50.448;18.122;2023-03-31T02:28:01;98402.29;;;7.85;92.34
62703;BME280;66022;50.448;18.122;2023-03-31T02:36:07;98400.11;;;7.88;90.06
62703;BME280;66022;50.448;18.122;2023-03-31T02:40:16;98399.25;;;7.89;91.07
62703;BME280;66022;50.448;18.122;2023-03-31T02:44:23;98397.25;;;7.89;90.22
62703;BME280;66022;50.448;18.122;2023-03-31T02:48:33;98394.61;;;7.85;92.19
62703;BME280;66022;50.448;18.122;2023-03-31T02:53:28;98393.48;;;7.82;91.25
62703;BME280;66022;50.448;18.122;2023-03-31T03:09:19;98384.45;;;7.72;92.04
62703;BME280;66022;50.448;18.122;2023-03-31T03:17:29;98380.08;;;7.73;94.10
62703;BME280;66022;50.448;18.122;2023-03-31T03:21:35;98377.81;;;7.74;90.89
62703;BME280;66022;50.448;18.122;2023-03-31T03:25:43;98375.82;;;7.73;90.62
62703;BME280;66022;50.448;18.122;2023-03-31T03:29:51;98372.85;;;7.72;91.28
62703;BME280;66022;50.448;18.122;2023-03-31T03:33:59;98368.48;;;7.69;90.54
62703;BME280;66022;50.448;18.122;2023-03-31T03:38:07;98363.45;;;7.66;91.65
62703;BME280;66022;50.448;18.122;2023-03-31T03:42:15;98358.79;;;7.62;90.11
62703;BME280;66022;50.448;18.122;2023-03-31T03:46:23;98355.92;;;7.56;93.74
62703;BME280;66022;50.448;18.122;2023-03-31T03:50:34;98352.81;;;7.51;90.20
62703;BME280;66022;50.448;18.122;2023-03-31T03:54:39;98349.77;;;7.45;88.41
62703;BME280;66022;50.448;18.122;2023-03-31T03:58:47;98346.61;;;7.33;88.78
62703;BME280;66022;50.448;18.122;2023-03-31T04:02:55;98343.95;;;7.26;87.85
62703;BME280;66022;50.448;18.122;2023-03-31T04:07:03;98341.83;;;7.16;92.70
62703;BME280;66022;50.448;18.122;2023-03-31T04:11:15;98337.14;;;7.09;88.73
62703;BME280;66022;50.448;18.122;2023-03-31T04:15:19;98334.39;;;7.01;88.96
62703;BME280;66022;50.448;18.122;2023-03-31T04:19:27;98332.65;;;6.95;89.31
62703;BME280;66022;50.448;18.122;2023-03-31T04:23:36;98329.89;;;6.90;88.71
62703;BME280;66022;50.448;18.122;2023-03-31T04:27:45;98328.76;;;6.85;91.53
62703;BME280;66022;50.448;18.122;2023-03-31T04:31:52;98323.67;;;6.80;90.67
62703;BME280;66022;50.448;18.122;2023-03-31T04:35:59;98319.86;;;6.76;89.94
62703;BME280;66022;50.448;18.122;2023-03-31T04:40:08;98317.78;;;6.72;89.43
62703;BME280;66022;50.448;18.122;2023-03-31T04:44:15;98316.72;;;6.70;89.03
62703;BME280;66022;50.448;18.122;2023-03-31T04:48:23;98315.72;;;6.67;90.14
62703;BME280;66022;50.448;18.122;2023-03-31T04:52:32;98313.06;;;6.66;89.15
62703;BME280;66022;50.448;18.122;2023-03-31T04:56:39;98310.46;;;6.62;93.88
62703;BME280;66022;50.448;18.122;2023-03-31T05:00:48;98308.43;;;6.64;89.20
62703;BME280;66022;50.448;18.122;2023-03-31T05:04:55;98308.62;;;6.66;89.25
62703;BME280;66022;50.448;18.122;2023-03-31T05:09:03;98307.60;;;6.68;89.52
62703;BME280;66022;50.448;18.122;2023-03-31T05:13:12;98305.24;;;6.73;89.06
62703;BME280;66022;50.448;18.122;2023-03-31T05:17:19;98302.29;;;6.77;92.31
62703;BME280;66022;50.448;18.122;2023-03-31T05:21:28;98299.84;;;6.83;90.72
62703;BME280;66022;50.448;18.122;2023-03-31T05:25:35;98296.52;;;6.88;90.36
62703;BME280;66022;50.448;18.122;2023-03-31T05:29:44;98292.74;;;6.95;91.60
62703;BME280;66022;50.448;18.122;2023-03-31T05:33:53;98289.90;;;7.05;89.91
62703;BME280;66022;50.448;18.122;2023-03-31T05:37:59;98287.70;;;7.16;91.92
62703;BME280;66022;50.448;18.122;2023-03-31T05:42:09;98287.14;;;7.33;89.40
62703;BME280;66022;50.448;18.122;2023-03-31T05:46:16;98285.85;;;7.51;90.63
62703;BME280;66022;50.448;18.122;2023-03-31T05:50:24;98284.55;;;7.71;88.40
62703;BME280;66022;50.448;18.122;2023-03-31T05:54:31;98282.73;;;7.90;87.77
62703;BME280;66022;50.448;18.122;2023-03-31T05:58:40;98280.83;;;8.04;88.36
62703;BME280;66022;50.448;18.122;2023-03-31T06:02:47;98277.80;;;8.20;87.51
62703;BME280;66022;50.448;18.122;2023-03-31T06:06:56;98274.94;;;8.32;91.65
62703;BME280;66022;50.448;18.122;2023-03-31T06:11:04;98272.58;;;8.44;88.72
62703;BME280;66022;50.448;18.122;2023-03-31T06:15:12;98269.81;;;8.54;87.83
62703;BME280;66022;50.448;18.122;2023-03-31T06:19:19;98265.72;;;8.61;88.36
62703;BME280;66022;50.448;18.122;2023-03-31T06:23:28;98263.23;;;8.69;87.77
62703;BME280;66022;50.448;18.122;2023-03-31T06:27:35;98261.36;;;8.81;88.91
62703;BME280;66022;50.448;18.122;2023-03-31T06:31:44;98259.23;;;9.01;85.77
62703;BME280;66022;50.448;18.122;2023-03-31T06:35:53;98256.37;;;9.22;85.11
62703;BME280;66022;50.448;18.122;2023-03-31T06:39:59;98253.66;;;9.46;84.30
62703;BME280;66022;50.448;18.122;2023-03-31T06:44:08;98251.97;;;9.71;83.83
62703;BME280;66022;50.448;18.122;2023-03-31T06:48:15;98250.40;;;9.96;83.94
62703;BME280;66022;50.448;18.122;2023-03-31T06:52:23;98248.88;;;10.19;82.91
62703;BME280;66022;50.448;18.122;2023-03-31T06:56:31;98244.86;;;10.40;83.54
62703;BME280;66022;50.448;18.122;2023-03-31T07:00:40;98240.66;;;10.86;78.71
62703;BME280;66022;50.448;18.122;2023-03-31T07:04:48;98237.09;;;11.26;78.44
62703;BME280;66022;50.448;18.122;2023-03-31T07:08:56;98234.23;;;11.54;78.41
62703;BME280;66022;50.448;18.122;2023-03-31T07:13:04;98231.29;;;11.82;78.84
62703;BME280;66022;50.448;18.122;2023-03-31T07:17:11;98229.55;;;12.03;79.04
62703;BME280;66022;50.448;18.122;2023-03-31T07:21:20;98227.61;;;12.24;78.32
62703;BME280;66022;50.448;18.122;2023-03-31T07:25:28;98225.02;;;12.40;78.50
62703;BME280;66022;50.448;18.122;2023-03-31T07:29:36;98222.78;;;12.52;78.38
62703;BME280;66022;50.448;18.122;2023-03-31T07:33:43;98218.98;;;12.64;78.51
62703;BME280;66022;50.448;18.122;2023-03-31T07:37:52;98215.24;;;12.76;78.14
62703;BME280;66022;50.448;18.122;2023-03-31T07:42:00;98211.83;;;12.87;78.18
62703;BME280;66022;50.448;18.122;2023-03-31T07:50:16;98203.45;;;13.10;77.54
62703;BME280;66022;50.448;18.122;2023-03-31T07:54:24;98198.83;;;13.27;76.19
62703;BME280;66022;50.448;18.122;2023-03-31T07:58:32;98193.19;;;13.39;76.07
62703;BME280;66022;50.448;18.122;2023-03-31T08:02:40;98186.27;;;13.62;74.42
62703;BME280;66022;50.448;18.122;2023-03-31T08:06:48;98178.70;;;13.77;75.45
62703;BME280;66022;50.448;18.122;2023-03-31T08:10:56;98171.42;;;14.02;73.32
62703;BME280;66022;50.448;18.122;2023-03-31T08:15:04;98163.83;;;14.28;73.14
62703;BME280;66022;50.448;18.122;2023-03-31T08:19:12;98157.30;;;14.56;71.80
62703;BME280;66022;50.448;18.122;2023-03-31T08:23:20;98149.24;;;14.84;70.18
62703;BME280;66022;50.448;18.122;2023-03-31T08:27:28;98143.08;;;15.08;68.39
62703;BME280;66022;50.448;18.122;2023-03-31T08:31:36;98135.68;;;15.35;67.84
62703;BME280;66022;50.448;18.122;2023-03-31T08:35:44;98128.69;;;15.67;66.52
62703;BME280;66022;50.448;18.122;2023-03-31T08:39:52;98122.86;;;15.99;66.85
62703;BME280;66022;50.448;18.122;2023-03-31T08:44:01;98119.26;;;16.27;65.43
62703;BME280;66022;50.448;18.122;2023-03-31T08:48:13;98112.42;;;16.45;66.66
62703;BME280;66022;50.448;18.122;2023-03-31T08:52:18;98106.48;;;16.59;67.80
62703;BME280;66022;50.448;18.122;2023-03-31T08:56:24;98099.29;;;16.73;63.28
62703;BME280;66022;50.448;18.122;2023-03-31T09:00:38;98091.20;;;16.96;64.27
62703;BME280;66022;50.448;18.122;2023-03-31T09:08:48;98076.14;;;17.26;64.92
62703;BME280;66022;50.448;18.122;2023-03-31T09:17:06;98063.84;;;17.61;63.40
62703;BME280;66022;50.448;18.122;2023-03-31T09:25:22;98053.36;;;17.87;62.79
62703;BME280;66022;50.448;18.122;2023-03-31T09:33:36;98045.73;;;17.96;63.24
62703;BME280;66022;50.448;18.122;2023-03-31T09:37:44;98042.38;;;17.99;62.72
62703;BME280;66022;50.448;18.122;2023-03-31T09:41:53;98039.32;;;18.01;63.01
62703;BME280;66022;50.448;18.122;2023-03-31T09:46:00;98035.74;;;18.05;62.17
62703;BME280;66022;50.448;18.122;2023-03-31T09:50:08;98030.98;;;18.11;63.18
62703;BME280;66022;50.448;18.122;2023-03-31T09:54:21;98025.97;;;18.24;63.00
62703;BME280;66022;50.448;18.122;2023-03-31T09:58:24;98019.98;;;18.29;63.23
62703;BME280;66022;50.448;18.122;2023-03-31T10:02:35;98014.50;;;18.30;63.76
62703;BME280;66022;50.448;18.122;2023-03-31T10:06:40;98010.02;;;18.21;63.21
62703;BME280;66022;50.448;18.122;2023-03-31T10:10:49;98004.49;;;18.25;63.08
62703;BME280;66022;50.448;18.122;2023-03-31T10:23:16;97987.16;;;18.21;64.80
62703;BME280;66022;50.448;18.122;2023-03-31T10:27:27;97981.89;;;18.19;63.78
62703;BME280;66022;50.448;18.122;2023-03-31T10:35:36;97972.91;;;18.08;65.08
62703;BME280;66022;50.448;18.122;2023-03-31T10:39:44;97970.43;;;17.94;65.42
62703;BME280;66022;50.448;18.122;2023-03-31T10:43:55;97967.16;;;17.79;65.02
62703;BME280;66022;50.448;18.122;2023-03-31T10:48:00;97963.56;;;17.61;64.73
62703;BME280;66022;50.448;18.122;2023-03-31T10:56:22;97957.86;;;17.20;65.26
62703;BME280;66022;50.448;18.122;2023-03-31T11:33:32;97920.23;;;15.94;68.43
62703;BME280;66022;50.448;18.122;2023-03-31T11:37:39;97913.98;;;15.89;68.89
62703;BME280;66022;50.448;18.122;2023-03-31T11:45:53;97898.78;;;15.82;68.75
62703;BME280;66022;50.448;18.122;2023-03-31T11:50:02;97890.72;;;15.79;68.29
62703;BME280;66022;50.448;18.122;2023-03-31T11:54:15;97882.65;;;15.77;68.26
62703;BME280;66022;50.448;18.122;2023-03-31T11:58:25;97875.80;;;15.72;65.85
62703;BME280;66022;50.448;18.122;2023-03-31T12:02:47;97868.87;;;15.69;66.64
62703;BME280;66022;50.448;18.122;2023-03-31T12:06:33;97861.89;;;15.63;66.43
62703;BME280;66022;50.448;18.122;2023-03-31T12:10:41;97856.14;;;15.63;66.53
62703;BME280;66022;50.448;18.122;2023-03-31T12:14:52;97849.73;;;15.65;66.87
62703;BME280;66022;50.448;18.122;2023-03-31T12:18:59;97842.90;;;15.65;66.44
62703;BME280;66022;50.448;18.122;2023-03-31T12:23:04;97836.55;;;15.68;67.66
62703;BME280;66022;50.448;18.122;2023-03-31T12:31:20;97822.89;;;15.70;67.53
62703;BME280;66022;50.448;18.122;2023-03-31T12:35:29;97816.72;;;15.73;67.12
62703;BME280;66022;50.448;18.122;2023-03-31T12:47:59;97801.97;;;15.65;66.87
62703;BME280;66022;50.448;18.122;2023-03-31T12:52:04;97796.72;;;15.60;67.93
62703;BME280;66022;50.448;18.122;2023-03-31T12:56:08;97791.88;;;15.54;67.71
62703;BME280;66022;50.448;18.122;2023-03-31T13:00:23;97786.57;;;15.48;68.59
62703;BME280;66022;50.448;18.122;2023-03-31T13:04:25;97781.62;;;15.43;69.71
62703;BME280;66022;50.448;18.122;2023-03-31T13:12:40;97769.75;;;15.25;72.83
62703;BME280;66022;50.448;18.122;2023-03-31T13:16:48;97762.45;;;15.13;74.14
62703;BME280;66022;50.448;18.122;2023-03-31T13:20:59;97756.41;;;15.05;73.00
62703;BME280;66022;50.448;18.122;2023-03-31T14:06:25;97689.63;;;13.46;87.57
62703;BME280;66022;50.448;18.122;2023-03-31T14:10:33;97682.79;;;13.31;84.45
62703;BME280;66022;50.448;18.122;2023-03-31T14:14:40;97676.05;;;13.17;84.60
62703;BME280;66022;50.448;18.122;2023-03-31T14:18:48;97668.42;;;13.00;85.35
62703;BME280;66022;50.448;18.122;2023-03-31T14:23:02;97659.03;;;12.87;83.85
62703;BME280;66022;50.448;18.122;2023-03-31T14:39:29;97629.22;;;12.47;83.82
62703;BME280;66022;50.448;18.122;2023-03-31T14:43:39;97623.91;;;12.40;83.38
62703;BME280;66022;50.448;18.122;2023-03-31T14:51:53;97615.37;;;12.29;83.31
62703;BME280;66022;50.448;18.122;2023-03-31T14:56:02;97611.88;;;12.24;82.53
62703;BME280;66022;50.448;18.122;2023-03-31T15:00:10;97608.67;;;12.21;82.63
62703;BME280;66022;50.448;18.122;2023-03-31T15:04:19;97603.02;;;12.19;82.45
62703;BME280;66022;50.448;18.122;2023-03-31T15:08:24;97595.08;;;12.18;82.98
62703;BME280;66022;50.448;18.122;2023-03-31T15:12:32;97586.39;;;12.19;83.34
62703;BME280;66022;50.448;18.122;2023-03-31T15:16:42;97579.60;;;12.17;86.72
62703;BME280;66022;50.448;18.122;2023-03-31T15:20:49;97572.16;;;12.17;83.28
62703;BME280;66022;50.448;18.122;2023-03-31T15:24:56;97565.92;;;12.17;83.11
62703;BME280;66022;50.448;18.122;2023-03-31T15:33:17;97553.82;;;12.18;83.80
62703;BME280;66022;50.448;18.122;2023-03-31T15:37:22;97548.71;;;12.18;85.33
62703;BME280;66022;50.448;18.122;2023-03-31T15:41:29;97544.72;;;12.20;83.90
62703;BME280;66022;50.448;18.122;2023-03-31T15:53:52;97536.95;;;12.22;84.66
62703;BME280;66022;50.448;18.122;2023-03-31T15:58:01;97534.73;;;12.22;85.41
62703;BME280;66022;50.448;18.122;2023-03-31T16:02:12;97534.14;;;12.23;84.82
62703;BME280;66022;50.448;18.122;2023-03-31T16:06:19;97535.49;;;12.23;87.56
62703;BME280;66022;50.448;18.122;2023-03-31T16:10:27;97536.03;;;12.23;87.29
62703;BME280;66022;50.448;18.122;2023-03-31T16:14:34;97538.75;;;12.21;87.24
62703;BME280;66022;50.448;18.122;2023-03-31T16:18:59;97538.98;;;12.17;87.60
62703;BME280;66022;50.448;18.122;2023-03-31T16:22:50;97539.90;;;12.15;86.97
62703;BME280;66022;50.448;18.122;2023-03-31T16:26:57;97542.63;;;12.12;91.43
62703;BME280;66022;50.448;18.122;2023-03-31T16:31:05;97541.72;;;12.12;86.09
62703;BME280;66022;50.448;18.122;2023-03-31T16:35:14;97540.01;;;12.10;85.76
62703;BME280;66022;50.448;18.122;2023-03-31T16:39:21;97537.59;;;12.09;86.28
62703;BME280;66022;50.448;18.122;2023-03-31T16:43:29;97529.38;;;12.10;84.65
62703;BME280;66022;50.448;18.122;2023-03-31T16:47:37;97519.21;;;12.09;86.19
62703;BME280;66022;50.448;18.122;2023-03-31T16:51:45;97507.51;;;12.11;84.35
62703;BME280;66022;50.448;18.122;2023-03-31T16:55:53;97496.12;;;12.11;84.29
62703;BME280;66022;50.448;18.122;2023-03-31T17:00:01;97489.73;;;12.11;85.16
62703;BME280;66022;50.448;18.122;2023-03-31T17:04:09;97482.43;;;12.10;85.24
62703;BME280;66022;50.448;18.122;2023-03-31T17:08:17;97476.54;;;12.09;85.30
62703;BME280;66022;50.448;18.122;2023-03-31T17:12:24;97471.20;;;12.08;84.87
62703;BME280;66022;50.448;18.122;2023-03-31T17:16:33;97466.74;;;12.04;88.44
62703;BME280;66022;50.448;18.122;2023-03-31T17:20:41;97462.33;;;12.03;84.63
62703;BME280;66022;50.448;18.122;2023-03-31T17:24:49;97456.76;;;12.00;84.84
62703;BME280;66022;50.448;18.122;2023-03-31T17:28:57;97454.42;;;11.91;86.26
62703;BME280;66022;50.448;18.122;2023-03-31T17:33:05;97452.81;;;11.83;86.01
62703;BME280;66022;50.448;18.122;2023-03-31T17:37:15;97452.14;;;11.71;88.33
62703;BME280;66022;50.448;18.122;2023-03-31T17:41:21;97452.09;;;11.60;86.06
62703;BME280;66022;50.448;18.122;2023-03-31T17:45:29;97452.27;;;11.48;86.26
62703;BME280;66022;50.448;18.122;2023-03-31T17:49:37;97450.25;;;11.35;87.22
62703;BME280;66022;50.448;18.122;2023-03-31T17:53:45;97446.73;;;11.22;86.71
62703;BME280;66022;50.448;18.122;2023-03-31T17:57:53;97443.69;;;11.08;87.58
62703;BME280;66022;50.448;18.122;2023-03-31T18:02:01;97443.00;;;10.98;86.66
62703;BME280;66022;50.448;18.122;2023-03-31T18:06:11;97442.83;;;10.86;86.21
62703;BME280;66022;50.448;18.122;2023-03-31T18:10:17;97444.42;;;10.77;86.29
62703;BME280;66022;50.448;18.122;2023-03-31T18:14:25;97444.48;;;10.68;86.17
62703;BME280;66022;50.448;18.122;2023-03-31T18:18:33;97444.29;;;10.58;87.29
62703;BME280;66022;50.448;18.122;2023-03-31T18:22:40;97442.43;;;10.52;86.08
62703;BME280;66022;50.448;18.122;2023-03-31T18:26:48;97440.27;;;10.44;92.21
62703;BME280;66022;50.448;18.122;2023-03-31T18:30:57;97438.34;;;10.40;86.91
62703;BME280;66022;50.448;18.122;2023-03-31T18:35:05;97435.08;;;10.36;87.00
62703;BME280;66022;50.448;18.122;2023-03-31T18:39:14;97432.83;;;10.29;87.69
62703;BME280;66022;50.448;18.122;2023-03-31T18:43:21;97431.43;;;10.25;86.88
62703;BME280;66022;50.448;18.122;2023-03-31T18:47:29;97429.53;;;10.19;88.94
62703;BME280;66022;50.448;18.122;2023-03-31T18:51:36;97427.42;;;10.16;87.16
62703;BME280;66022;50.448;18.122;2023-03-31T18:55:48;97426.26;;;10.12;86.90
62703;BME280;66022;50.448;18.122;2023-03-31T18:59:52;97425.80;;;10.10;88.37
62703;BME280;66022;50.448;18.122;2023-03-31T19:04:01;97425.80;;;10.08;87.54
62703;BME280;66022;50.448;18.122;2023-03-31T19:08:09;97425.73;;;10.08;89.61
62703;BME280;66022;50.448;18.122;2023-03-31T19:12:17;97424.89;;;10.08;87.95
62703;BME280;66022;50.448;18.122;2023-03-31T19:16:25;97423.15;;;10.04;90.89
62703;BME280;66022;50.448;18.122;2023-03-31T19:20:33;97422.65;;;10.02;88.14
62703;BME280;66022;50.448;18.122;2023-03-31T19:24:41;97421.81;;;10.01;87.82
62703;BME280;66022;50.448;18.122;2023-03-31T19:28:48;97421.19;;;9.94;89.36
62703;BME280;66022;50.448;18.122;2023-03-31T19:32:57;97422.09;;;9.93;88.28
62703;BME280;66022;50.448;18.122;2023-03-31T19:37:04;97421.43;;;9.90;93.41
62703;BME280;66022;50.448;18.122;2023-03-31T19:41:13;97422.47;;;9.89;88.18
62703;BME280;66022;50.448;18.122;2023-03-31T19:45:21;97425.33;;;9.86;88.25
62703;BME280;66022;50.448;18.122;2023-03-31T19:49:29;97428.69;;;9.80;89.68
62703;BME280;66022;50.448;18.122;2023-03-31T19:53:37;97432.54;;;9.77;89.08
62703;BME280;66022;50.448;18.122;2023-03-31T19:57:46;97436.61;;;9.72;91.65
62703;BME280;66022;50.448;18.122;2023-03-31T20:01:53;97440.41;;;9.69;89.56
62703;BME280;66022;50.448;18.122;2023-03-31T20:06:10;97444.43;;;9.66;88.93
62703;BME280;66022;50.448;18.122;2023-03-31T20:10:09;97445.76;;;9.64;88.61
62703;BME280;66022;50.448;18.122;2023-03-31T20:14:17;97447.08;;;9.64;87.91
62703;BME280;66022;50.448;18.122;2023-03-31T20:18:25;97448.15;;;9.62;88.53
62703;BME280;66022;50.448;18.122;2023-03-31T20:22:33;97449.63;;;9.63;87.77
62703;BME280;66022;50.448;18.122;2023-03-31T20:26:41;97451.14;;;9.60;90.80
62703;BME280;66022;50.448;18.122;2023-03-31T20:30:49;97452.51;;;9.59;86.85
62703;BME280;66022;50.448;18.122;2023-03-31T20:34:57;97454.42;;;9.56;87.07
62703;BME280;66022;50.448;18.122;2023-03-31T20:39:05;97455.89;;;9.49;88.15
62703;BME280;66022;50.448;18.122;2023-03-31T20:43:13;97458.81;;;9.46;87.54
62703;BME280;66022;50.448;18.122;2023-03-31T20:47:21;97461.18;;;9.42;90.44
62703;BME280;66022;50.448;18.122;2023-03-31T20:51:30;97464.73;;;9.39;87.74
62703;BME280;66022;50.448;18.122;2023-03-31T20:55:37;97467.81;;;9.36;87.50
62703;BME280;66022;50.448;18.122;2023-03-31T20:59:45;97470.22;;;9.31;87.77
62703;BME280;66022;50.448;18.122;2023-03-31T21:03:53;97472.42;;;9.29;86.56
62703;BME280;66022;50.448;18.122;2023-03-31T21:08:01;97473.46;;;9.24;89.09
62703;BME280;66022;50.448;18.122;2023-03-31T21:12:09;97475.56;;;9.21;87.30
62703;BME280;66022;50.448;18.122;2023-03-31T21:16:17;97480.17;;;9.15;88.49
62703;BME280;66022;50.448;18.122;2023-03-31T21:20:25;97484.11;;;9.09;87.49
62703;BME280;66022;50.448;18.122;2023-03-31T21:24:33;97485.66;;;9.03;87.02
62703;BME280;66022;50.448;18.122;2023-03-31T21:28:41;97486.21;;;8.94;87.48
62703;BME280;66022;50.448;18.122;2023-03-31T21:32:49;97487.13;;;8.90;86.90
62703;BME280;66022;50.448;18.122;2023-03-31T21:36:57;97487.10;;;8.83;91.10
62703;BME280;66022;50.448;18.122;2023-03-31T21:45:15;97486.31;;;8.78;86.07
62703;BME280;66022;50.448;18.122;2023-03-31T21:49:25;97485.58;;;8.78;85.60
62703;BME280;66022;50.448;18.122;2023-03-31T21:53:29;97485.28;;;8.81;84.90
62703;BME280;66022;50.448;18.122;2023-03-31T21:57:37;97486.60;;;8.83;86.18
62703;BME280;66022;50.448;18.122;2023-03-31T22:01:45;97490.09;;;8.86;84.29
62703;BME280;66022;50.448;18.122;2023-03-31T22:05:56;97492.11;;;8.86;83.78
62703;BME280;66022;50.448;18.122;2023-03-31T22:10:11;97493.37;;;8.83;84.06
62703;BME280;66022;50.448;18.122;2023-03-31T22:14:09;97495.48;;;8.83;84.01
62703;BME280;66022;50.448;18.122;2023-03-31T22:18:17;97495.48;;;8.83;85.33
62703;BME280;66022;50.448;18.122;2023-03-31T22:22:25;97497.16;;;8.83;84.20
62703;BME280;66022;50.448;18.122;2023-03-31T22:26:33;97498.78;;;8.80;86.90
62703;BME280;66022;50.448;18.122;2023-03-31T22:30:41;97500.62;;;8.80;84.21
62703;BME280;66022;50.448;18.122;2023-03-31T22:34:49;97502.06;;;8.78;84.23
62703;BME280;66022;50.448;18.122;2023-03-31T22:38:57;97502.37;;;8.73;83.48
62703;BME280;66022;50.448;18.122;2023-03-31T22:43:05;97503.03;;;8.71;83.41
62703;BME280;66022;50.448;18.122;2023-03-31T22:47:13;97503.14;;;8.66;86.67
62703;BME280;66022;50.448;18.122;2023-03-31T22:51:21;97504.30;;;8.63;84.83
62703;BME280;66022;50.448;18.122;2023-03-31T22:55:29;97504.96;;;8.60;84.49
62703;BME280;66022;50.448;18.122;2023-03-31T22:59:37;97502.75;;;8.54;84.41
62703;BME280;66022;50.448;18.122;2023-03-31T23:03:45;97500.01;;;8.50;83.92
62703;BME280;66022;50.448;18.122;2023-03-31T23:07:53;97497.03;;;8.44;85.04
62703;BME280;66022;50.448;18.122;2023-03-31T23:12:01;97495.19;;;8.43;84.45
62703;BME280;66022;50.448;18.122;2023-03-31T23:16:10;97493.27;;;8.40;83.97
62703;BME280;66022;50.448;18.122;2023-03-31T23:20:17;97490.03;;;8.37;84.70
62703;BME280;66022;50.448;18.122;2023-03-31T23:24:25;97486.01;;;8.36;84.41
62703;BME280;66022;50.448;18.122;2023-03-31T23:28:33;97484.20;;;8.31;86.21
62703;BME280;66022;50.448;18.122;2023-03-31T23:32:41;97482.78;;;8.27;84.83
62703;BME280;66022;50.448;18.122;2023-03-31T23:36:49;97482.72;;;8.18;90.21
62703;BME280;66022;50.448;18.122;2023-03-31T23:40:57;97483.03;;;8.15;85.66
62703;BME280;66022;50.448;18.122;2023-03-31T23:45:05;97482.84;;;8.11;85.91
62703;BME280;66022;50.448;18.122;2023-03-31T23:49:13;97480.74;;;8.05;86.17
62703;BME280;66022;50.448;18.122;2023-03-31T23:53:21;97478.63;;;8.01;86.05
62703;BME280;66022;50.448;18.122;2023-03-31T23:57:29;97476.65;;;7.96;88.18
